Time;durP1;ratioP1;P1;durP2;ratioP2;P2;SDS_P1;SDS_P2;PMS_P1;PMS_P2;Temp;Humidity;BMP_temperature;BMP_pressure;BME280_temperature;BME280_humidity;BME280_pressure;Samples;Min_cycle;Max_cycle;Signal;HPM_P1;HPM_P2
2024/04/18 00:00:33;;;;;;;4.82;3.90;;;8.50;99.90;;;;;;4443912;26;20434;-61
2024/04/18 00:02:37;;;;;;;4.20;3.38;;;8.50;99.90;;;;;;4426052;26;20122;-67
2024/04/18 00:04:38;;;;;;;5.65;3.80;;;8.50;99.90;;;;;;4449873;26;20008;-68
2024/04/18 00:06:38;;;;;;;6.53;3.22;;;8.50;99.90;;;;;;4454590;26;20350;-69
2024/04/18 00:08:39;;;;;;;4.47;3.15;;;8.50;99.90;;;;;;4445991;26;20026;-69
2024/04/18 00:10:42;;;;;;;3.88;3.33;;;8.50;99.90;;;;;;4448345;26;20023;-67
2024/04/18 00:12:43;;;;;;;4.60;3.50;;;8.50;99.90;;;;;;4463663;26;20008;-71
2024/04/18 00:14:44;;;;;;;4.45;3.45;;;8.50;99.90;;;;;;4452639;26;20031;-70
2024/04/18 00:16:44;;;;;;;4.07;3.17;;;8.50;99.90;;;;;;4453928;26;20008;-71
2024/04/18 00:18:45;;;;;;;4.97;3.38;;;8.50;99.90;;;;;;4451023;26;20008;-70
2024/04/18 00:20:48;;;;;;;4.38;3.40;;;8.50;99.90;;;;;;4457713;26;20016;-69
2024/04/18 00:22:49;;;;;;;3.85;3.08;;;8.50;99.90;;;;;;4469804;26;20024;-69
2024/04/18 00:24:50;;;;;;;3.92;3.30;;;8.50;99.90;;;;;;4452139;26;20027;-71
2024/04/18 00:26:51;;;;;;;4.00;3.05;;;8.40;99.90;;;;;;4420119;26;20638;-69
2024/04/18 00:28:58;;;;;;;7.13;3.05;;;8.40;99.90;;;;;;4456173;26;20427;-67
2024/04/18 00:30:58;;;;;;;3.42;2.70;;;8.40;99.90;;;;;;4454278;26;20008;-61
2024/04/18 00:32:59;;;;;;;4.07;3.03;;;8.40;99.90;;;;;;4426158;26;20020;-61
2024/04/18 00:34:59;;;;;;;4.28;3.50;;;8.40;99.90;;;;;;4457493;26;20036;-61
2024/04/18 00:37:00;;;;;;;4.13;3.38;;;8.40;99.90;;;;;;4450754;26;20008;-64
2024/04/18 00:39:01;;;;;;;4.95;3.58;;;8.40;99.90;;;;;;4449714;26;20333;-65
2024/04/18 00:41:02;;;;;;;4.25;3.78;;;8.40;99.90;;;;;;4460798;26;20055;-61
2024/04/18 00:43:03;;;;;;;3.42;3.13;;;8.40;99.90;;;;;;4459787;26;20004;-61
2024/04/18 00:45:04;;;;;;;3.42;3.13;;;8.40;99.90;;;;;;4450132;26;20415;-67
2024/04/18 00:47:06;;;;;;;3.60;3.05;;;8.40;99.90;;;;;;4457001;26;20082;-61
2024/04/18 00:49:08;;;;;;;5.35;3.80;;;8.40;99.90;;;;;;4420037;26;20022;-65
2024/04/18 00:51:09;;;;;;;5.13;3.85;;;8.40;99.90;;;;;;4436619;26;20078;-69
2024/04/18 00:53:09;;;;;;;4.70;3.70;;;8.40;99.90;;;;;;4448988;26;20028;-69
2024/04/18 00:55:10;;;;;;;4.57;4.05;;;8.40;99.90;;;;;;4437410;26;20142;-69
2024/04/18 00:57:12;;;;;;;4.40;3.75;;;8.30;99.90;;;;;;4451530;26;20008;-67
2024/04/18 00:59:15;;;;;;;3.75;3.28;;;8.30;99.90;;;;;;4454827;26;20004;-69
2024/04/18 01:01:16;;;;;;;;;;;8.30;99.90;;;;;;4446113;26;20383;-68
2024/04/18 01:03:17;;;;;;;4.55;3.63;;;8.30;99.90;;;;;;4448181;26;20262;-65
2024/04/18 01:05:18;;;;;;;6.18;4.03;;;8.30;99.90;;;;;;4445736;26;20027;-67
2024/04/18 01:07:19;;;;;;;6.63;4.65;;;8.30;99.90;;;;;;4458556;26;20000;-68
2024/04/18 01:09:20;;;;;;;5.28;4.22;;;8.30;99.90;;;;;;4457876;26;21135;-67
2024/04/18 01:11:21;;;;;;;6.22;4.00;;;8.30;99.90;;;;;;4453903;26;20104;-67
2024/04/18 01:13:21;;;;;;;5.80;4.80;;;8.30;99.90;;;;;;4453885;26;20467;-70
2024/04/18 01:15:22;;;;;;;7.00;4.85;;;8.30;99.90;;;;;;4450050;26;21530;-68
2024/04/18 01:17:23;;;;;;;5.15;4.28;;;8.30;99.90;;;;;;4453703;26;21128;-61
2024/04/18 01:19:24;;;;;;;5.40;3.90;;;8.30;99.90;;;;;;4448285;26;20016;-70
2024/04/18 01:21:24;;;;;;;6.82;4.63;;;8.30;99.90;;;;;;4449857;26;20486;-69
2024/04/18 01:23:29;;;;;;;5.30;3.97;;;8.30;99.90;;;;;;4456750;26;20012;-64
2024/04/18 01:25:29;;;;;;;5.20;4.10;;;8.30;99.90;;;;;;4452070;26;20004;-68
2024/04/18 01:27:30;;;;;;;4.60;3.97;;;8.30;99.90;;;;;;4451255;26;20007;-68
2024/04/18 01:29:30;;;;;;;5.22;3.75;;;8.20;99.90;;;;;;4427082;26;20055;-68
2024/04/18 01:31:31;;;;;;;4.13;3.67;;;8.30;99.90;;;;;;4451142;26;20094;-65
2024/04/18 01:33:32;;;;;;;5.07;3.75;;;8.30;99.90;;;;;;4435958;26;20052;-67
2024/04/18 01:35:33;;;;;;;4.70;3.85;;;8.30;99.90;;;;;;4455141;26;20011;-60
2024/04/18 01:37:33;;;;;;;5.13;3.90;;;8.30;99.90;;;;;;4424398;26;20348;-69
2024/04/18 01:39:34;;;;;;;5.03;3.85;;;8.20;99.90;;;;;;4441222;26;20100;-62
2024/04/18 01:41:35;;;;;;;3.88;2.92;;;8.30;99.90;;;;;;4445076;26;20409;-61
2024/04/18 01:43:35;;;;;;;5.05;3.85;;;8.30;99.90;;;;;;4428876;26;20004;-68
2024/04/18 01:45:36;;;;;;;4.47;3.88;;;8.30;99.90;;;;;;4440090;26;20033;-60
2024/04/18 01:47:36;;;;;;;4.10;3.45;;;8.30;99.90;;;;;;4454521;26;20394;-67
2024/04/18 01:49:38;;;;;;;3.70;3.13;;;8.30;99.90;;;;;;4422342;26;20019;-69
2024/04/18 01:51:39;;;;;;;4.03;3.28;;;8.30;99.90;;;;;;4454049;26;20015;-67
2024/04/18 01:53:40;;;;;;;5.47;3.28;;;8.30;99.90;;;;;;4449209;26;20057;-68
2024/04/18 01:55:40;;;;;;;4.63;2.92;;;8.30;99.90;;;;;;4454708;26;20372;-70
2024/04/18 01:57:42;;;;;;;4.95;2.90;;;8.30;99.90;;;;;;4418478;26;20025;-70
2024/04/18 01:59:43;;;;;;;3.60;2.37;;;8.30;99.90;;;;;;4447210;26;20393;-61
2024/04/18 02:01:43;;;;;;;2.90;2.45;;;8.30;99.90;;;;;;4423707;26;20020;-61
2024/04/18 02:03:44;;;;;;;2.45;2.03;;;8.30;99.90;;;;;;4430322;26;20099;-61
2024/04/18 02:05:45;;;;;;;2.83;2.35;;;8.30;99.90;;;;;;4455598;26;20012;-61
2024/04/18 02:07:45;;;;;;;2.47;2.17;;;8.20;99.90;;;;;;4454580;26;20009;-61
2024/04/18 02:09:46;;;;;;;2.30;2.10;;;8.20;99.90;;;;;;4460244;26;20050;-61
2024/04/18 02:11:46;;;;;;;3.53;2.35;;;8.20;99.90;;;;;;4454402;26;20126;-61
2024/04/18 02:13:47;;;;;;;2.88;2.10;;;8.20;99.90;;;;;;4457778;26;20399;-68
2024/04/18 02:15:48;;;;;;;2.50;2.00;;;8.20;99.90;;;;;;4447418;26;20068;-67
2024/04/18 02:17:48;;;;;;;2.72;2.28;;;8.20;99.90;;;;;;4447967;26;20020;-70
2024/04/18 02:19:49;;;;;;;2.33;2.05;;;8.20;99.90;;;;;;4447854;26;20379;-61
2024/04/18 02:21:53;;;;;;;2.40;2.17;;;8.20;99.90;;;;;;4451364;26;20324;-60
2024/04/18 02:23:54;;;;;;;4.47;2.60;;;8.20;99.90;;;;;;4446931;26;20045;-60
2024/04/18 02:25:54;;;;;;;3.97;2.15;;;8.20;99.90;;;;;;4457995;26;20015;-60
2024/04/18 02:27:55;;;;;;;3.20;2.03;;;8.20;99.90;;;;;;4443041;26;20019;-60
2024/04/18 02:29:55;;;;;;;2.22;2.00;;;8.10;99.90;;;;;;4389450;26;20339;-70
2024/04/18 02:31:57;;;;;;;3.47;2.10;;;8.20;99.90;;;;;;4423944;26;20005;-66
2024/04/18 02:33:57;;;;;;;3.03;2.28;;;8.10;99.90;;;;;;4409495;26;20019;-61
2024/04/18 02:35:58;;;;;;;3.55;2.20;;;8.10;99.90;;;;;;4459491;26;20015;-61
2024/04/18 02:37:59;;;;;;;4.22;2.13;;;8.10;99.90;;;;;;4465064;26;20332;-61
2024/04/18 02:40:00;;;;;;;3.15;2.13;;;8.10;99.90;;;;;;4444690;26;20012;-61
2024/04/18 02:42:00;;;;;;;3.70;2.60;;;8.10;99.90;;;;;;4432947;26;20015;-61
2024/04/18 02:44:01;;;;;;;3.70;2.40;;;8.10;99.90;;;;;;4459003;26;20008;-61
2024/04/18 02:46:02;;;;;;;4.00;2.60;;;8.10;99.90;;;;;;4413633;26;20037;-61
2024/04/18 02:48:02;;;;;;;2.65;2.13;;;8.10;99.90;;;;;;4463585;26;20470;-61
2024/04/18 02:50:03;;;;;;;3.28;2.35;;;8.10;99.90;;;;;;4448173;26;20015;-65
2024/04/18 02:52:04;;;;;;;3.20;2.40;;;8.00;99.90;;;;;;4461672;26;20012;-65
2024/04/18 02:54:05;;;;;;;3.53;2.65;;;8.00;99.90;;;;;;4457256;26;20008;-65
2024/04/18 02:56:05;;;;;;;3.45;2.67;;;8.10;99.90;;;;;;4461711;26;20011;-66
2024/04/18 02:58:06;;;;;;;4.00;2.60;;;8.00;99.90;;;;;;4429438;26;20013;-65
2024/04/18 03:00:07;;;;;;;4.72;2.42;;;8.00;99.90;;;;;;4416193;26;20041;-67
2024/04/18 03:02:08;;;;;;;5.13;2.42;;;8.00;99.90;;;;;;4453948;26;20023;-65
2024/04/18 03:04:08;;;;;;;3.85;2.60;;;8.00;99.90;;;;;;4456040;26;20008;-65
2024/04/18 03:06:09;;;;;;;2.78;2.45;;;8.00;99.90;;;;;;4453703;26;20026;-65
2024/04/18 03:08:10;;;;;;;3.50;2.28;;;8.00;99.90;;;;;;4455042;26;20364;-65
2024/04/18 03:10:10;;;;;;;4.38;2.53;;;8.00;99.90;;;;;;4447466;26;20069;-65
2024/04/18 03:12:13;;;;;;;3.15;2.30;;;8.00;99.90;;;;;;4457484;26;20020;-69
2024/04/18 03:14:14;;;;;;;2.72;2.15;;;8.00;99.90;;;;;;4453815;26;20016;-69
2024/04/18 03:16:20;;;;;;;2.53;2.05;;;8.00;99.90;;;;;;4451904;26;20015;-69
2024/04/18 03:18:21;;;;;;;4.90;2.75;;;8.00;99.90;;;;;;4442830;26;20048;-68
2024/04/18 03:20:22;;;;;;;3.40;2.47;;;8.00;99.90;;;;;;4450218;26;20502;-69
2024/04/18 03:22:23;;;;;;;2.92;2.25;;;8.00;99.90;;;;;;4455684;26;20441;-69
2024/04/18 03:24:23;;;;;;;3.17;2.65;;;8.00;99.90;;;;;;4450517;26;20016;-69
2024/04/18 03:26:24;;;;;;;4.53;2.00;;;8.00;99.90;;;;;;4454866;26;20015;-68
2024/04/18 03:28:25;;;;;;;2.88;2.00;;;8.00;99.90;;;;;;4454256;26;20005;-68
2024/04/18 03:30:28;;;;;;;4.10;2.15;;;7.90;99.90;;;;;;4442740;26;20012;-67
2024/04/18 03:32:37;;;;;;;2.70;2.30;;;7.90;99.90;;;;;;4446285;26;20018;-67
2024/04/18 03:34:38;;;;;;;3.58;2.03;;;7.90;99.90;;;;;;4450221;26;20020;-69
2024/04/18 03:36:52;;;;;;;2.67;1.92;;;7.90;99.90;;;;;;4457650;26;20340;-65
2024/04/18 03:38:53;;;;;;;2.63;1.90;;;8.00;99.90;;;;;;4449776;26;20049;-65
2024/04/18 03:40:57;;;;;;;2.78;2.10;;;7.90;99.90;;;;;;4458869;26;20003;-65
2024/04/18 03:42:58;;;;;;;2.38;1.85;;;7.90;99.90;;;;;;4457954;26;20024;-65
2024/04/18 03:44:59;;;;;;;4.15;2.10;;;7.90;99.90;;;;;;4462856;26;20023;-65
2024/04/18 03:47:00;;;;;;;3.15;1.73;;;7.90;99.90;;;;;;4450055;26;20078;-65
2024/04/18 03:49:00;;;;;;;4.07;1.90;;;7.90;99.90;;;;;;4457906;26;20460;-65
2024/04/18 03:51:01;;;;;;;2.90;2.30;;;7.90;99.90;;;;;;4426622;26;20104;-65
2024/04/18 03:53:02;;;;;;;3.58;2.30;;;7.80;99.90;;;;;;4463778;26;20004;-65
2024/04/18 03:55:03;;;;;;;4.32;2.17;;;7.80;99.90;;;;;;4397351;26;20856;-66
2024/04/18 03:57:04;;;;;;;2.88;2.20;;;7.80;99.90;;;;;;4460634;26;20081;-65
2024/04/18 03:59:05;;;;;;;3.28;1.85;;;7.80;99.90;;;;;;4456190;26;20340;-69
2024/04/18 04:01:05;;;;;;;2.60;1.83;;;7.80;99.90;;;;;;4451239;26;20012;-65
2024/04/18 04:03:06;;;;;;;3.15;2.00;;;7.80;99.90;;;;;;4448813;26;20348;-65
2024/04/18 04:05:07;;;;;;;4.90;2.42;;;7.80;99.90;;;;;;4451066;26;20004;-65
2024/04/18 04:07:08;;;;;;;3.33;1.90;;;7.70;99.90;;;;;;4445981;26;20022;-65
2024/04/18 04:09:08;;;;;;;3.15;2.15;;;7.80;99.90;;;;;;4422275;26;20044;-67
2024/04/18 04:11:09;;;;;;;2.90;1.70;;;7.70;99.90;;;;;;4458903;26;20019;-66
2024/04/18 04:13:10;;;;;;;4.03;2.03;;;7.70;99.90;;;;;;4463794;26;20394;-66
2024/04/18 04:15:11;;;;;;;3.00;2.10;;;7.70;99.90;;;;;;4463904;26;20062;-66
2024/04/18 04:17:14;;;;;;;2.53;1.88;;;7.70;99.90;;;;;;4448246;26;20313;-69
2024/04/18 04:19:14;;;;;;;2.17;1.98;;;7.70;99.90;;;;;;4459762;26;20115;-66
2024/04/18 04:21:19;;;;;;;2.58;1.85;;;7.70;99.90;;;;;;4446037;26;20008;-65
2024/04/18 04:23:19;;;;;;;3.70;1.95;;;7.70;99.90;;;;;;4455515;26;20015;-60
2024/04/18 04:25:20;;;;;;;4.07;1.85;;;7.60;99.90;;;;;;4458210;26;20040;-65
2024/04/18 04:27:20;;;;;;;6.03;2.20;;;7.60;99.90;;;;;;4451876;26;20004;-65
2024/04/18 04:29:21;;;;;;;4.13;1.90;;;7.60;99.90;;;;;;4450767;26;20020;-68
2024/04/18 04:31:22;;;;;;;10.95;2.72;;;7.60;99.90;;;;;;4450224;26;20451;-67
2024/04/18 04:33:27;;;;;;;6.05;2.30;;;7.60;99.90;;;;;;4451214;26;20007;-68
2024/04/18 04:35:28;;;;;;;4.22;1.83;;;7.60;99.90;;;;;;4446557;26;20004;-68
2024/04/18 04:37:29;;;;;;;2.45;1.65;;;7.60;99.90;;;;;;4453448;26;20066;-61
2024/04/18 04:39:30;;;;;;;3.53;1.50;;;7.60;99.90;;;;;;4419904;26;20091;-65
2024/04/18 04:41:30;;;;;;;3.30;2.03;;;7.50;99.90;;;;;;4463000;26;20015;-69
2024/04/18 04:43:31;;;;;;;4.50;1.65;;;7.50;99.90;;;;;;4454001;26;20027;-68
2024/04/18 04:45:32;;;;;;;4.78;2.35;;;7.50;99.90;;;;;;4448580;26;20527;-66
2024/04/18 04:47:33;;;;;;;3.15;1.95;;;7.50;99.90;;;;;;4416237;26;20410;-68
2024/04/18 04:49:33;;;;;;;4.53;2.05;;;7.50;99.90;;;;;;4444331;26;20021;-68
2024/04/18 04:51:34;;;;;;;3.45;1.90;;;7.50;99.90;;;;;;4415168;26;20384;-69
2024/04/18 04:53:35;;;;;;;3.55;1.67;;;7.40;99.90;;;;;;4418165;26;20022;-66
2024/04/18 04:55:35;;;;;;;3.58;1.98;;;7.50;99.90;;;;;;4456723;26;20008;-67
2024/04/18 04:57:36;;;;;;;3.17;1.77;;;7.40;99.90;;;;;;4451515;26;20479;-66
2024/04/18 04:59:37;;;;;;;2.92;1.63;;;7.40;99.90;;;;;;4457742;26;20040;-66
2024/04/18 05:01:38;;;;;;;3.15;1.98;;;7.40;99.90;;;;;;4443558;26;20097;-67
2024/04/18 05:03:38;;;;;;;3.00;1.60;;;7.40;99.90;;;;;;4446972;26;20016;-67
2024/04/18 05:05:42;;;;;;;2.20;1.52;;;7.40;99.90;;;;;;4451191;26;20008;-66
2024/04/18 05:07:43;;;;;;;2.95;1.75;;;7.40;99.90;;;;;;4447696;26;20024;-67
2024/04/18 05:09:44;;;;;;;4.50;1.75;;;7.40;99.90;;;;;;4457565;26;20039;-67
2024/04/18 05:11:45;;;;;;;3.88;1.77;;;7.40;99.90;;;;;;4443324;26;20353;-67
2024/04/18 05:13:45;;;;;;;5.13;1.77;;;7.40;99.90;;;;;;4439862;26;20027;-67
2024/04/18 05:15:46;;;;;;;4.07;2.25;;;7.40;99.90;;;;;;4454270;26;20369;-66
2024/04/18 05:17:47;;;;;;;2.15;1.50;;;7.40;99.90;;;;;;4464396;26;20016;-66
2024/04/18 05:19:47;;;;;;;3.42;2.28;;;7.40;99.90;;;;;;4444427;26;20012;-66
2024/04/18 05:21:48;;;;;;;4.28;2.08;;;7.40;99.90;;;;;;4457470;26;20022;-66
2024/04/18 05:23:49;;;;;;;3.85;2.20;;;7.40;99.90;;;;;;4450207;26;20015;-66
2024/04/18 05:25:49;;;;;;;2.35;1.85;;;7.40;99.90;;;;;;4442300;26;20003;-76
2024/04/18 05:28:09;;;;;;;3.20;1.95;;;7.50;99.90;;;;;;4416291;26;20039;-67
2024/04/18 05:32:29;;;;;;;3.50;2.15;;;7.50;99.90;;;;;;4426449;26;20025;-60
2024/04/18 05:34:30;;;;;;;3.70;1.95;;;7.50;99.90;;;;;;4450475;26;20072;-67
2024/04/18 05:36:31;;;;;;;3.22;1.60;;;7.50;99.90;;;;;;4452181;26;20012;-66
2024/04/18 05:38:31;;;;;;;3.58;2.20;;;7.50;99.90;;;;;;4450757;26;20515;-66
2024/04/18 05:40:32;;;;;;;3.75;2.20;;;7.50;99.90;;;;;;4444671;26;20043;-71
2024/04/18 05:42:33;;;;;;;3.33;1.70;;;7.50;99.90;;;;;;4454848;26;20530;-60
2024/04/18 05:44:39;;;;;;;3.05;1.83;;;7.50;99.90;;;;;;4441438;26;20059;-64
2024/04/18 05:46:40;;;;;;;4.65;2.00;;;7.60;99.90;;;;;;4453924;26;20020;-65
2024/04/18 05:48:41;;;;;;;3.78;2.03;;;7.60;99.90;;;;;;4451284;26;20016;-65
2024/04/18 05:50:41;;;;;;;2.88;1.75;;;7.60;99.90;;;;;;4445667;26;20004;-60
2024/04/18 05:52:42;;;;;;;2.58;2.00;;;7.60;99.90;;;;;;4453965;26;20019;-71
2024/04/18 05:54:43;;;;;;;1.90;1.58;;;7.70;99.90;;;;;;4418757;26;20035;-64
2024/04/18 05:56:43;;;;;;;5.28;2.05;;;7.70;99.90;;;;;;4410895;26;20025;-64
2024/04/18 05:58:44;;;;;;;4.40;1.98;;;7.70;99.90;;;;;;4443016;26;20437;-60
2024/04/18 06:00:45;;;;;;;4.88;2.22;;;7.70;99.90;;;;;;4378161;26;20005;-66
2024/04/18 06:02:46;;;;;;;2.40;1.40;;;7.70;99.90;;;;;;4371585;26;20024;-68
2024/04/18 06:04:46;;;;;;;3.40;1.77;;;7.80;99.90;;;;;;4375863;26;20466;-66
2024/04/18 06:06:47;;;;;;;4.53;1.77;;;7.80;99.90;;;;;;4373685;26;20021;-66
2024/04/18 06:08:50;;;;;;;2.60;1.83;;;7.90;99.90;;;;;;4366459;26;20021;-67
2024/04/18 06:10:50;;;;;;;3.50;2.00;;;7.80;99.90;;;;;;4365401;26;20045;-67
2024/04/18 06:12:55;;;;;;;4.93;1.90;;;7.90;99.90;;;;;;4399176;26;20489;-66
2024/04/18 06:14:55;;;;;;;2.53;1.60;;;7.90;99.90;;;;;;4372270;26;20014;-66
2024/04/18 06:16:59;;;;;;;3.90;1.58;;;7.90;99.90;;;;;;4374948;26;20010;-66
2024/04/18 06:19:00;;;;;;;4.43;1.92;;;7.90;99.90;;;;;;4373600;26;20675;-61
2024/04/18 06:21:01;;;;;;;4.97;1.77;;;8.00;99.90;;;;;;4420758;26;20015;-60
2024/04/18 06:23:01;;;;;;;3.00;1.60;;;8.00;99.90;;;;;;4379828;26;20017;-60
2024/04/18 06:25:03;;;;;;;4.40;1.77;;;8.10;99.90;;;;;;4380254;26;20102;-60
2024/04/18 06:27:03;;;;;;;4.60;1.80;;;8.10;99.90;;;;;;4375799;26;20018;-60
2024/04/18 06:29:04;;;;;;;3.92;1.77;;;8.20;99.90;;;;;;4372833;26;20395;-60
2024/04/18 06:31:05;;;;;;;3.22;1.42;;;8.30;99.90;;;;;;4401937;26;20013;-60
2024/04/18 06:33:05;;;;;;;2.75;1.40;;;8.40;99.90;;;;;;4376485;26;20010;-60
2024/04/18 06:35:06;;;;;;;4.85;1.83;;;8.50;99.90;;;;;;4372393;26;20141;-61
2024/04/18 06:37:08;;;;;;;3.03;1.60;;;8.90;99.90;;;;;;4362618;26;20036;-60
2024/04/18 06:39:09;;;;;;;4.13;1.60;;;9.30;99.90;;;;;;4375859;26;20025;-59
2024/04/18 06:41:10;;;;;;;3.15;1.90;;;9.70;99.90;;;;;;4378142;26;20002;-59
2024/04/18 06:43:10;;;;;;;4.10;1.85;;;10.00;99.90;;;;;;4379447;26;20077;-60
2024/04/18 06:45:12;;;;;;;4.57;1.70;;;10.30;99.90;;;;;;4374368;26;20587;-60
2024/04/18 06:47:13;;;;;;;4.70;1.40;;;10.60;99.90;;;;;;4380809;26;20496;-59
2024/04/18 06:49:13;;;;;;;3.72;1.70;;;10.90;99.90;;;;;;4376376;26;20018;-59
2024/04/18 06:51:14;;;;;;;4.68;1.95;;;11.10;99.90;;;;;;4384057;26;20037;-59
2024/04/18 06:53:15;;;;;;;2.80;1.40;;;11.30;99.90;;;;;;4371494;26;20005;-60
2024/04/18 06:55:16;;;;;;;3.55;1.70;;;11.60;99.90;;;;;;4378473;26;20016;-60
2024/04/18 06:57:16;;;;;;;3.83;1.73;;;11.90;99.90;;;;;;4376885;26;20011;-59
2024/04/18 06:59:17;;;;;;;4.50;1.55;;;12.10;99.90;;;;;;4395999;26;20016;-59
2024/04/18 07:01:17;;;;;;;4.10;1.70;;;12.30;99.90;;;;;;4406557;26;20389;-59
2024/04/18 07:03:18;;;;;;;1.90;0.98;;;12.40;99.90;;;;;;4442320;26;20020;-62
2024/04/18 07:05:19;;;;;;;4.55;1.70;;;12.70;99.90;;;;;;4439909;26;20012;-60
2024/04/18 07:07:20;;;;;;;4.32;1.60;;;12.80;99.90;;;;;;4439211;26;20026;-59
2024/04/18 07:09:20;;;;;;;4.95;1.90;;;13.00;99.90;;;;;;4437097;26;20081;-60
2024/04/18 07:11:21;;;;;;;3.20;1.50;;;13.10;99.90;;;;;;4445591;26;20012;-60
2024/04/18 07:13:22;;;;;;;5.38;1.77;;;13.30;99.90;;;;;;4445552;26;20008;-59
2024/04/18 07:15:22;;;;;;;4.80;1.70;;;13.40;99.90;;;;;;4441395;26;20453;-60
2024/04/18 07:17:23;;;;;;;4.03;1.50;;;13.40;99.90;;;;;;4444898;26;20008;-59
2024/04/18 07:19:24;;;;;;;2.47;1.08;;;13.60;99.90;;;;;;4444015;26;20362;-60
2024/04/18 07:21:24;;;;;;;2.60;1.38;;;13.70;99.90;;;;;;4441960;26;20014;-60
2024/04/18 07:23:25;;;;;;;2.15;1.33;;;13.80;99.90;;;;;;4438218;26;21113;-60
2024/04/18 07:25:25;;;;;;;2.75;1.35;;;13.80;99.90;;;;;;4442573;26;20004;-59
2024/04/18 07:27:26;;;;;;;3.28;1.20;;;13.80;99.90;;;;;;4443699;26;20521;-59
2024/04/18 07:29:27;;;;;;;3.45;1.40;;;13.90;99.90;;;;;;4440956;26;20012;-64
2024/04/18 07:31:27;;;;;;;2.38;1.13;;;14.00;99.90;;;;;;4445976;26;20086;-65
2024/04/18 07:33:28;;;;;;;2.33;1.35;;;14.00;99.90;;;;;;4446777;26;20073;-64
2024/04/18 07:35:30;;;;;;;4.25;1.10;;;14.10;99.90;;;;;;4442736;26;20030;-65
2024/04/18 07:37:31;;;;;;;1.23;0.80;;;14.10;99.90;;;;;;4413930;26;20016;-65
2024/04/18 07:39:32;;;;;;;2.65;1.27;;;14.20;99.90;;;;;;4441436;26;20008;-65
2024/04/18 07:41:33;;;;;;;2.90;1.05;;;14.10;99.90;;;;;;4438666;26;20468;-65
2024/04/18 07:43:34;;;;;;;5.95;1.17;;;14.20;99.90;;;;;;4437677;26;20020;-64
2024/04/18 07:45:35;;;;;;;5.90;1.60;;;14.30;99.90;;;;;;4406768;26;20356;-64
2024/04/18 07:47:37;;;;;;;2.15;0.82;;;14.30;99.90;;;;;;4441474;26;20097;-65
2024/04/18 07:49:38;;;;;;;3.35;0.98;;;14.30;99.90;;;;;;4443180;26;20015;-64
2024/04/18 07:51:40;;;;;;;3.22;1.20;;;14.30;99.90;;;;;;4440741;26;20034;-65
2024/04/18 07:53:41;;;;;;;2.40;0.90;;;14.20;99.90;;;;;;4443078;26;20106;-64
2024/04/18 07:55:42;;;;;;;3.42;0.82;;;14.30;99.90;;;;;;4438191;26;20012;-64
2024/04/18 07:57:43;;;;;;;5.07;1.10;;;14.20;99.90;;;;;;4437462;26;20439;-65
2024/04/18 07:59:44;;;;;;;1.35;0.63;;;14.30;99.90;;;;;;4445801;26;20048;-64
2024/04/18 08:01:47;;;;;;;2.97;1.10;;;14.20;99.90;;;;;;4441060;26;20087;-65
2024/04/18 08:03:48;;;;;;;4.47;0.88;;;14.30;99.90;;;;;;4442056;26;20020;-64
2024/04/18 08:05:52;;;;;;;1.05;0.65;;;14.30;99.90;;;;;;4441196;26;20111;-64
2024/04/18 08:07:53;;;;;;;3.28;0.80;;;14.20;99.90;;;;;;4443008;26;20031;-65
2024/04/18 08:09:54;;;;;;;2.40;0.70;;;14.30;99.90;;;;;;4442377;26;20492;-65
2024/04/18 08:11:54;;;;;;;2.17;0.73;;;14.30;99.90;;;;;;4401345;26;20016;-65
2024/04/18 08:13:55;;;;;;;2.17;0.88;;;14.30;99.90;;;;;;4441490;26;20019;-65
2024/04/18 08:15:55;;;;;;;3.13;1.17;;;14.40;99.90;;;;;;4444567;26;20077;-65
2024/04/18 08:17:56;;;;;;;3.30;1.05;;;14.40;99.90;;;;;;4446931;26;20099;-65
2024/04/18 08:19:57;;;;;;;1.48;0.50;;;14.40;99.90;;;;;;4441173;26;20026;-65
2024/04/18 08:21:57;;;;;;;2.33;0.90;;;14.50;99.90;;;;;;4440415;26;20019;-64
2024/04/18 08:24:01;;;;;;;3.67;0.75;;;14.50;99.90;;;;;;4444424;26;20008;-64
2024/04/18 08:26:03;;;;;;;1.65;0.73;;;14.50;99.90;;;;;;4440827;26;20016;-64
2024/04/18 08:28:05;;;;;;;2.40;0.70;;;14.60;99.90;;;;;;4448420;26;20011;-64
2024/04/18 08:30:06;;;;;;;4.82;1.10;;;14.60;99.90;;;;;;4442072;26;20070;-65
2024/04/18 08:32:07;;;;;;;3.03;0.90;;;14.60;99.90;;;;;;4442341;26;20012;-65
2024/04/18 08:34:08;;;;;;;2.05;0.80;;;14.60;99.90;;;;;;4443074;26;20012;-64
2024/04/18 08:36:09;;;;;;;3.38;0.75;;;14.50;99.90;;;;;;4439182;26;20012;-64
2024/04/18 08:38:11;;;;;;;2.95;0.70;;;14.50;99.90;;;;;;4444747;26;20023;-65
2024/04/18 08:40:12;;;;;;;1.20;0.70;;;14.30;99.90;;;;;;4382573;26;20939;-63
2024/04/18 08:42:13;;;;;;;2.63;0.93;;;14.50;99.90;;;;;;4444430;26;20011;-62
2024/04/18 08:44:14;;;;;;;4.45;0.85;;;14.30;99.90;;;;;;4439913;26;20008;-62
2024/04/18 08:46:16;;;;;;;4.00;0.98;;;14.50;99.90;;;;;;4440905;26;20020;-62
2024/04/18 08:48:18;;;;;;;3.28;0.98;;;14.50;99.90;;;;;;4446041;26;20428;-62
2024/04/18 08:50:20;;;;;;;1.95;0.98;;;14.60;99.90;;;;;;4432769;26;20023;-62
2024/04/18 08:52:21;;;;;;;1.77;0.70;;;14.50;99.90;;;;;;4441778;26;20012;-62
2024/04/18 08:54:21;;;;;;;1.95;0.70;;;14.60;99.90;;;;;;4443798;26;20004;-62
2024/04/18 08:56:24;;;;;;;1.88;0.73;;;14.60;99.90;;;;;;4437082;26;20026;-63
2024/04/18 08:58:25;;;;;;;3.22;0.73;;;14.50;99.90;;;;;;4444136;26;20011;-62
2024/04/18 09:00:25;;;;;;;2.08;0.73;;;14.60;99.90;;;;;;4403033;26;20064;-64
2024/04/18 09:02:26;;;;;;;3.75;0.90;;;14.50;99.90;;;;;;4409957;26;20337;-62
2024/04/18 09:04:28;;;;;;;1.20;0.70;;;14.40;99.90;;;;;;4409412;26;20019;-63
2024/04/18 09:06:29;;;;;;;3.20;0.80;;;14.50;99.90;;;;;;4409198;26;20025;-62
2024/04/18 09:08:30;;;;;;;1.67;0.57;;;14.70;99.90;;;;;;4413229;26;20082;-63
2024/04/18 09:10:31;;;;;;;3.70;0.98;;;14.70;99.90;;;;;;4409842;26;20436;-62
2024/04/18 09:12:32;;;;;;;3.13;0.80;;;14.80;99.90;;;;;;4408140;26;20021;-62
2024/04/18 09:14:33;;;;;;;4.45;0.95;;;14.90;99.90;;;;;;4407263;26;20020;-62
2024/04/18 09:16:33;;;;;;;0.65;0.50;;;15.00;99.90;;;;;;4407724;26;20008;-62
2024/04/18 09:18:34;;;;;;;3.05;1.00;;;15.10;99.90;;;;;;4413072;26;20369;-62
2024/04/18 09:20:37;;;;;;;3.42;1.10;;;15.20;99.90;;;;;;4411984;26;20091;-63
2024/04/18 09:22:37;;;;;;;;;;;15.20;99.90;;;;;;4410560;26;20027;-62
2024/04/18 09:24:43;;;;;;;3.22;0.75;;;15.10;99.90;;;;;;4411618;26;19926;-62
2024/04/18 09:26:46;;;;;;;3.00;0.80;;;15.10;99.90;;;;;;4408340;26;20068;-62
2024/04/18 09:28:46;;;;;;;;;;;15.10;99.90;;;;;;4408105;26;20461;-62
2024/04/18 09:30:53;;;;;;;3.13;1.00;;;15.10;99.90;;;;;;4426133;26;19940;-62
2024/04/18 09:32:54;;;;;;;2.10;0.80;;;15.00;99.90;;;;;;4412850;26;20005;-62
2024/04/18 09:34:57;;;;;;;3.55;0.90;;;15.00;99.90;;;;;;4410378;26;20009;-62
2024/04/18 09:37:05;;;;;;;2.08;0.88;;;14.80;99.90;;;;;;4408433;26;20005;-63
2024/04/18 09:39:10;;;;;;;2.58;0.80;;;14.70;99.90;;;;;;4409153;26;20087;-63
2024/04/18 09:41:12;;;;;;;1.15;0.65;;;14.50;99.90;;;;;;4410276;26;20027;-62
2024/04/18 09:43:29;;;;;;;3.28;0.98;;;14.40;99.90;;;;;;4405478;26;20216;-62
2024/04/18 09:46:05;;;;;;;1.13;0.55;;;14.20;99.90;;;;;;4405983;26;20345;-62
2024/04/18 09:48:06;;;;;;;3.85;0.90;;;14.10;99.90;;;;;;4411098;26;20372;-62
2024/04/18 09:50:07;;;;;;;3.65;0.70;;;14.00;99.90;;;;;;4412540;26;20042;-69
2024/04/18 09:52:09;;;;;;;2.10;0.75;;;14.00;99.90;;;;;;4411775;26;20342;-67
2024/04/18 09:54:11;;;;;;;2.43;0.70;;;14.10;99.90;;;;;;4411602;26;20365;-67
2024/04/18 09:56:12;;;;;;;2.30;0.77;;;14.10;99.90;;;;;;4407169;26;20017;-67
2024/04/18 09:58:15;;;;;;;4.47;0.50;;;14.20;99.90;;;;;;4411566;26;20024;-67
2024/04/18 10:00:16;;;;;;;2.72;0.85;;;14.30;99.90;;;;;;4434313;26;20432;-67
2024/04/18 10:02:20;;;;;;;2.95;0.70;;;14.30;99.90;;;;;;4439352;26;20027;-67
2024/04/18 10:04:22;;;;;;;1.58;0.70;;;14.20;99.90;;;;;;4409428;26;20019;-67
2024/04/18 10:06:29;;;;;;;2.53;0.68;;;14.20;99.90;;;;;;4442811;26;20012;-67
2024/04/18 10:08:37;;;;;;;1.65;0.65;;;14.30;99.90;;;;;;4444141;26;20348;-67
2024/04/18 10:10:38;;;;;;;1.35;0.70;;;14.40;99.90;;;;;;4440961;26;20009;-67
2024/04/18 10:12:40;;;;;;;1.85;0.57;;;14.40;99.90;;;;;;4443360;26;20015;-67
2024/04/18 10:14:41;;;;;;;1.88;0.73;;;14.40;99.90;;;;;;4441195;26;20038;-67
2024/04/18 10:16:47;;;;;;;2.85;0.60;;;14.40;99.90;;;;;;4443312;26;19999;-67
2024/04/18 10:18:48;;;;;;;1.80;0.70;;;14.50;99.90;;;;;;4440315;26;20011;-67
2024/04/18 10:20:53;;;;;;;1.65;0.60;;;14.50;99.90;;;;;;4444084;26;20471;-67
2024/04/18 10:23:00;;;;;;;1.13;0.55;;;14.60;99.90;;;;;;4432715;26;20440;-67
2024/04/18 10:25:02;;;;;;;1.70;0.60;;;14.70;99.90;;;;;;4432248;26;20054;-67
2024/04/18 10:27:15;;;;;;;3.55;0.73;;;14.80;99.90;;;;;;4438029;26;20337;-67
2024/04/18 10:29:26;;;;;;;1.45;0.73;;;14.80;99.90;;;;;;4441036;26;20030;-67
2024/04/18 10:31:28;;;;;;;5.63;1.20;;;14.70;99.90;;;;;;4438816;26;20026;-65
2024/04/18 10:33:29;;;;;;;2.08;0.90;;;14.60;99.90;;;;;;4438819;26;20043;-67
2024/04/18 10:35:30;;;;;;;2.97;0.82;;;14.60;99.90;;;;;;4431962;26;20732;-67
2024/04/18 10:37:31;;;;;;;1.90;0.80;;;14.50;99.90;;;;;;4441711;26;20348;-67
2024/04/18 10:39:35;;;;;;;1.45;0.60;;;14.50;99.90;;;;;;4440983;26;20008;-67